Main page
METAR-TAF:

METAR-TAF

Airports :

Bella Coola Airport

Bella Coola, British Columbia, Canada

latitude: 52-23N, longitude: 126-35W, elevation: 115 ft

Current weather observation

The report was made 5 hours and 55 minutes ago, at 01:00 UTC
Wind 17 mph from the West/Southwest with gusts up to 25 mph
Temperature 82°F
Humidity 32%
Pressure 30.03 in. Hg
Visibility: 15 miles
Few clouds at a height of 4500 ft
Few clouds at a height of 12000 ft
Broken clouds at a height of 26000 ft

METAR: CYBD 130100Z 24015G22KT 15SM FEW045 FEW120 BKN260 28/10 A3003 RMK CU1AC2CS4 CU TR LAST STFD OBS/NXT 131300Z/ SLP171 DENSITY ALT 1600FT

Time: 23:55 (06:55 UTC)


TAF: missing

Weather observations and forecasts of more than 4000 airports (METAR and TAF reports).

The available stations are represented by yellow and red dots on the map.

Hover mouse over dot to see the name of the station.

Then click to see weather observations and forecasts.

To change the map : click on the green buttons with a black cross to zoom in, on the green button with a dash to zoom out, or on the green arrows for adjacent maps.


METAR-TAF: